Time,TemperatureF,DewpointF,PressureIn,WindDirection,WindDirectionDegrees,WindSpeedMPH,WindSpeedGustMPH,Humidity,HourlyPrecipIn,Conditions,Clouds,dailyrainin,SolarRadiationWatts/m^2,SoftwareType,DateUTC
2013-02-14 00:21:00,35.0,13.0,-100.00,ENE,64,5.0,11.0,39,-99.99,,,-99.99,0.000000,,2013-02-14 08:21:00,
2013-02-14 00:30:00,34.0,14.0,-100.00,NE,43,3.0,10.0,43,-99.99,,,-99.99,0.000000,,2013-02-14 08:30:00,
2013-02-14 01:21:00,34.0,14.0,-100.00,NE,43,3.0,10.0,43,-99.99,,,-99.99,0.000000,,2013-02-14 09:21:00,
2013-02-14 01:30:00,34.0,14.0,-100.00,NE,48,3.0,10.0,43,-99.99,,,-99.99,0.000000,,2013-02-14 09:30:00,
2013-02-14 02:21:00,34.0,14.0,-100.00,NE,48,3.0,10.0,43,-99.99,,,-99.99,0.000000,,2013-02-14 10:21:00,
2013-02-14 02:30:00,34.0,15.0,-100.00,ENE,62,9.0,17.0,46,-99.99,,,-99.99,0.000000,,2013-02-14 10:30:00,
2013-02-14 03:21:00,34.0,15.0,-100.00,ENE,62,9.0,17.0,46,-99.99,,,-99.99,0.000000,,2013-02-14 11:21:00,
2013-02-14 03:30:00,33.0,17.0,-100.00,ENE,75,8.0,14.0,52,-99.99,,,-99.99,0.000000,,2013-02-14 11:30:00,
2013-02-14 04:22:00,33.0,17.0,-100.00,ENE,75,8.0,14.0,52,-99.99,,,-99.99,0.000000,,2013-02-14 12:22:00,
2013-02-14 04:30:00,32.0,18.0,-100.00,ENE,69,5.0,15.0,56,-99.99,,,-99.99,0.000000,,2013-02-14 12:30:00,
2013-02-14 05:21:00,32.0,18.0,-100.00,ENE,69,5.0,15.0,56,-99.99,,,-99.99,0.000000,,2013-02-14 13:21:00,
2013-02-14 05:30:00,34.0,17.0,-100.00,NE,43,5.0,18.0,48,-99.99,,,-99.99,0.000000,,2013-02-14 13:30:00,
2013-02-14 06:21:00,34.0,17.0,-100.00,NE,43,5.0,18.0,48,-99.99,,,-99.99,0.000000,,2013-02-14 14:21:00,
2013-02-14 06:30:00,33.0,18.0,-100.00,ENE,65,9.0,18.0,54,-99.99,,,-99.99,0.000000,,2013-02-14 14:30:00,
2013-02-14 07:21:00,33.0,18.0,-100.00,ENE,65,9.0,18.0,54,-99.99,,,-99.99,0.000000,,2013-02-14 15:21:00,
2013-02-14 07:30:00,34.0,18.0,-100.00,SSE,166,6.0,10.0,52,-99.99,,,-99.99,31.000000,,2013-02-14 15:30:00,
2013-02-14 08:21:00,34.0,18.0,-100.00,SSE,166,6.0,10.0,52,-99.99,,,-99.99,31.000000,,2013-02-14 16:21:00,
2013-02-14 08:30:00,37.0,16.0,-100.00,NE,39,2.0,10.0,42,-99.99,,,-99.99,36.000000,,2013-02-14 16:30:00,
2013-02-14 09:21:00,37.0,16.0,-100.00,NE,39,2.0,10.0,42,-99.99,,,-99.99,36.000000,,2013-02-14 17:21:00,
2013-02-14 09:30:00,39.0,18.0,-100.00,NE,40,3.0,9.0,43,-99.99,,,-99.99,302.000000,,2013-02-14 17:30:00,
2013-02-14 10:22:00,39.0,18.0,-100.00,NE,40,3.0,9.0,43,-99.99,,,-99.99,302.000000,,2013-02-14 18:22:00,
2013-02-14 10:30:00,38.0,20.0,-100.00,ESE,104,6.0,11.0,47,-99.99,,,-99.99,443.000000,,2013-02-14 18:30:00,
2013-02-14 11:21:00,38.0,20.0,-100.00,ESE,104,6.0,11.0,47,-99.99,,,-99.99,443.000000,,2013-02-14 19:21:00,
2013-02-14 11:30:00,41.0,16.0,-100.00,East,96,6.0,16.0,37,-99.99,,,-99.99,513.000000,,2013-02-14 19:30:00,
2013-02-14 12:21:00,41.0,16.0,-100.00,East,96,6.0,16.0,37,-99.99,,,-99.99,513.000000,,2013-02-14 20:21:00,
2013-02-14 12:30:00,43.0,16.0,-100.00,East,101,4.0,10.0,33,-99.99,,,-99.99,525.000000,,2013-02-14 20:30:00,
2013-02-14 13:21:00,43.0,16.0,-100.00,East,101,4.0,10.0,33,-99.99,,,-99.99,525.000000,,2013-02-14 21:21:00,
2013-02-14 14:30:00,45.0,9.0,-100.00,East,85,5.0,13.0,23,-99.99,,,-99.99,329.000000,,2013-02-14 22:30:00,
2013-02-14 15:30:00,43.0,13.0,-100.00,ESE,108,5.0,14.0,28,-99.99,,,-99.99,258.000000,,2013-02-14 23:30:00,
2013-02-14 17:21:00,40.0,13.0,-100.00,East,79,7.0,18.0,32,-99.99,,,-99.99,73.000000,,2013-02-15 01:21:00,
2013-02-14 17:30:00,37.0,16.0,-100.00,ESE,108,7.0,13.0,41,-99.99,,,-99.99,7.000000,,2013-02-15 01:30:00,
2013-02-14 18:21:00,37.0,16.0,-100.00,ESE,108,7.0,13.0,41,-99.99,,,-99.99,7.000000,,2013-02-15 02:21:00,
2013-02-14 18:30:00,36.0,15.0,-100.00,East,80,8.0,16.0,43,-99.99,,,-99.99,0.000000,,2013-02-15 02:30:00,
2013-02-14 19:21:00,36.0,15.0,-100.00,East,80,8.0,16.0,43,-99.99,,,-99.99,0.000000,,2013-02-15 03:21:00,
2013-02-14 20:21:00,37.0,10.0,-100.00,ENE,65,10.0,17.0,32,-99.99,,,-99.99,0.000000,,2013-02-15 04:21:00,
2013-02-14 21:22:00,36.0,7.0,-100.00,East,92,9.0,16.0,30,-99.99,,,-99.99,0.000000,,2013-02-15 05:22:00,
2013-02-14 22:21:00,36.0,8.0,-100.00,NE,56,8.0,18.0,31,-99.99,,,-99.99,0.000000,,2013-02-15 06:21:00,
2013-02-14 23:21:00,37.0,3.0,-100.00,ENE,76,9.0,20.0,24,-99.99,,,-99.99,0.000000,,2013-02-15 07:21:00,